createdAt,value
2022-09-23T00:01:24.101Z,85.75
2022-09-23T00:03:51.883Z,85.60
2022-09-23T00:06:21.953Z,85.68
2022-09-23T00:08:50.703Z,85.90
2022-09-23T00:11:20.516Z,86.19
2022-09-23T00:13:51.411Z,86.32
2022-09-23T00:16:23.980Z,86.60
2022-09-23T00:18:51.956Z,86.05
2022-09-23T00:21:22.395Z,86.06
2022-09-23T00:23:50.437Z,86.91
2022-09-23T00:26:20.423Z,86.43
2022-09-23T00:28:49.644Z,86.67
2022-09-23T00:31:21.448Z,86.81
2022-09-23T00:33:54.089Z,86.88
2022-09-23T00:36:21.905Z,87.97
2022-09-23T00:38:49.592Z,87.31
2022-09-23T00:41:17.630Z,87.15
2022-09-23T00:43:47.838Z,87.26
2022-09-23T00:46:21.912Z,87.85
2022-09-23T00:48:54.832Z,87.35
2022-09-23T00:51:25.767Z,86.98
2022-09-23T00:53:53.908Z,88.08
2022-09-23T00:56:24.017Z,87.25
2022-09-23T00:58:52.118Z,87.38
2022-09-23T01:01:22.184Z,86.80
2022-09-23T01:03:51.131Z,87.29
2022-09-23T01:06:19.012Z,87.21
2022-09-23T01:08:48.589Z,86.92
2022-09-23T01:11:27.373Z,86.23
2022-09-23T01:14:07.524Z,86.77
2022-09-23T01:16:44.090Z,87.14
2022-09-23T01:19:25.515Z,86.81
2022-09-23T01:22:01.218Z,86.37
2022-09-23T01:24:48.206Z,86.54
2022-09-23T01:27:28.625Z,86.49
2022-09-23T01:30:34.274Z,86.49
2022-09-23T01:33:11.190Z,87.13
2022-09-23T01:35:48.690Z,86.39
2022-09-23T01:38:28.476Z,86.07
2022-09-23T01:41:04.557Z,86.15
2022-09-23T01:43:41.868Z,86.66
2022-09-23T01:46:18.908Z,86.25
2022-09-23T01:48:53.683Z,86.49
2022-09-23T01:51:26.444Z,86.68
2022-09-23T01:53:59.746Z,85.84
2022-09-23T01:56:31.658Z,85.70
2022-09-23T01:59:09.275Z,85.73
2022-09-23T02:01:43.118Z,85.29
2022-09-23T02:04:15.426Z,85.81
2022-09-23T02:06:50.736Z,85.45
2022-09-23T02:09:25.647Z,84.72
2022-09-23T02:11:58.876Z,84.12
2022-09-23T02:14:31.913Z,84.30
2022-09-23T02:17:09.882Z,84.35
2022-09-23T02:19:43.603Z,83.98
2022-09-23T02:22:18.017Z,83.94
2022-09-23T02:24:46.191Z,83.97
2022-09-23T02:27:22.991Z,84.10
2022-09-23T02:29:56.239Z,83.24
2022-09-23T02:32:33.018Z,82.57
2022-09-23T02:35:11.427Z,83.02
2022-09-23T02:37:45.457Z,82.84
2022-09-23T02:40:23.446Z,83.22
2022-09-23T02:43:01.259Z,83.35
2022-09-23T02:45:29.120Z,82.79
2022-09-23T02:48:05.074Z,82.81
2022-09-23T02:50:33.624Z,83.20
2022-09-23T02:53:02.109Z,83.03
2022-09-23T02:55:32.381Z,82.28
2022-09-23T02:58:02.559Z,82.43
2022-09-23T03:00:40.563Z,81.94
2022-09-23T03:03:29.415Z,81.31
2022-09-23T03:05:59.896Z,81.24
2022-09-23T03:08:42.940Z,81.42
2022-09-23T03:11:13.598Z,81.31
2022-09-23T03:13:56.252Z,81.14
2022-09-23T03:16:33.756Z,80.98
2022-09-23T03:19:18.215Z,81.02
2022-09-23T03:21:53.136Z,80.84
2022-09-23T03:24:24.839Z,80.93
2022-09-23T03:26:54.894Z,80.85
2022-09-23T03:29:24.476Z,80.51
2022-09-23T03:31:53.143Z,80.17
2022-09-23T03:34:26.118Z,80.06
2022-09-23T03:37:00.590Z,79.31
2022-09-23T03:39:35.558Z,80.02
2022-09-23T03:42:16.658Z,79.67
2022-09-23T03:44:45.702Z,79.27
2022-09-23T03:47:14.769Z,79.29
2022-09-23T03:49:48.321Z,78.51
2022-09-23T03:52:16.911Z,78.94
2022-09-23T03:54:45.337Z,78.55
2022-09-23T03:57:14.328Z,78.70
2022-09-23T03:59:42.436Z,78.67
2022-09-23T04:02:11.258Z,78.93
2022-09-23T04:04:40.202Z,78.18
2022-09-23T04:07:09.451Z,78.81
2022-09-23T04:09:38.281Z,78.18
2022-09-23T04:12:06.864Z,78.38
2022-09-23T04:14:35.051Z,78.35
2022-09-23T04:17:02.932Z,78.09
2022-09-23T04:19:30.934Z,78.90
2022-09-23T04:21:58.833Z,78.61
2022-09-23T04:24:28.252Z,79.06
2022-09-23T04:26:57.091Z,79.16
2022-09-23T04:29:26.268Z,78.90
2022-09-23T04:31:54.839Z,79.18
2022-09-23T04:34:23.194Z,78.95
2022-09-23T04:36:51.753Z,79.35
2022-09-23T04:39:19.604Z,79.24
2022-09-23T04:41:52.360Z,78.71
2022-09-23T04:44:21.177Z,78.12
2022-09-23T04:46:49.266Z,78.69
2022-09-23T04:49:17.330Z,78.33
2022-09-23T04:51:45.662Z,77.95
2022-09-23T04:54:14.719Z,77.96
2022-09-23T04:56:43.065Z,77.62
2022-09-23T04:59:12.280Z,77.83
2022-09-23T05:01:40.183Z,77.89
2022-09-23T05:04:13.796Z,78.23
2022-09-23T05:06:45.234Z,78.53
2022-09-23T05:09:17.097Z,78.36
2022-09-23T05:11:45.716Z,78.37
2022-09-23T05:14:15.183Z,77.50
2022-09-23T05:16:43.011Z,78.15
2022-09-23T05:19:11.730Z,77.84
2022-09-23T05:21:39.518Z,76.86
2022-09-23T05:24:07.837Z,77.37
2022-09-23T05:26:38.951Z,76.75
2022-09-23T05:29:07.303Z,76.26
2022-09-23T05:31:36.940Z,77.25
2022-09-23T05:34:05.943Z,76.27
2022-09-23T05:36:38.694Z,76.35
2022-09-23T05:39:07.950Z,76.57
2022-09-23T05:41:36.259Z,76.44
2022-09-23T05:44:04.276Z,75.70
2022-09-23T05:46:33.114Z,75.05
2022-09-23T05:49:05.317Z,75.64
2022-09-23T05:51:34.788Z,75.48
2022-09-23T05:54:03.930Z,74.75
2022-09-23T05:56:32.877Z,73.82
2022-09-23T05:59:02.878Z,74.49
2022-09-23T06:01:33.849Z,73.63
2022-09-23T06:04:05.785Z,73.79
2022-09-23T06:06:36.021Z,74.23
2022-09-23T06:09:05.748Z,73.33
2022-09-23T06:11:35.298Z,73.37
2022-09-23T06:14:03.797Z,73.33
2022-09-23T06:16:34.596Z,72.81
2022-09-23T06:19:06.577Z,73.22
2022-09-23T06:21:35.544Z,73.45
2022-09-23T06:24:04.003Z,73.10
2022-09-23T06:26:35.149Z,72.59
2022-09-23T06:29:08.671Z,72.47
2022-09-23T06:31:36.817Z,72.69
2022-09-23T06:34:11.837Z,72.34
2022-09-23T06:36:44.337Z,72.57
2022-09-23T06:39:13.402Z,72.75
2022-09-23T06:41:41.237Z,71.90
2022-09-23T06:44:13.496Z,71.94
2022-09-23T06:46:41.696Z,71.64
2022-09-23T06:49:11.862Z,71.87
2022-09-23T06:51:40.207Z,71.44
2022-09-23T06:54:08.355Z,71.67
2022-09-23T06:56:39.010Z,72.55
2022-09-23T06:59:08.252Z,72.54
2022-09-23T07:01:36.193Z,72.79
2022-09-23T07:04:07.650Z,72.71
2022-09-23T07:06:37.506Z,72.47
2022-09-23T07:09:06.551Z,71.79
2022-09-23T07:11:34.525Z,71.41
2022-09-23T07:14:02.333Z,71.64
2022-09-23T07:16:30.207Z,71.77
2022-09-23T07:18:58.105Z,72.06
2022-09-23T07:21:25.939Z,72.14
2022-09-23T07:23:58.168Z,71.45
2022-09-23T07:26:26.621Z,71.45
2022-09-23T07:28:56.696Z,71.71
2022-09-23T07:31:37.675Z,71.43
2022-09-23T07:34:06.615Z,70.74
2022-09-23T07:36:37.139Z,70.06
2022-09-23T07:39:06.390Z,69.68
2022-09-23T07:41:35.531Z,69.80
2022-09-23T07:44:04.294Z,69.27
2022-09-23T07:46:33.990Z,68.16
2022-09-23T07:49:02.983Z,68.22
2022-09-23T07:51:36.018Z,67.76
2022-09-23T07:54:08.609Z,67.17
2022-09-23T07:56:37.920Z,66.76
2022-09-23T07:59:08.529Z,66.19
2022-09-23T08:01:38.871Z,65.88
2022-09-23T08:04:08.903Z,65.29
2022-09-23T08:06:36.908Z,64.49
2022-09-23T08:09:04.979Z,64.76
2022-09-23T08:11:35.119Z,64.60
2022-09-23T08:14:02.917Z,64.90
2022-09-23T08:16:30.808Z,64.11
2022-09-23T08:18:58.647Z,64.23
2022-09-23T08:21:26.579Z,64.57
2022-09-23T08:23:54.483Z,64.67
2022-09-23T08:26:22.631Z,64.46
2022-09-23T08:28:54.612Z,64.56
2022-09-23T08:31:23.135Z,64.15
2022-09-23T08:33:54.949Z,64.62
2022-09-23T08:36:22.846Z,64.71
2022-09-23T08:38:50.625Z,64.59
2022-09-23T08:41:25.344Z,64.47
2022-09-23T08:43:58.860Z,64.70
2022-09-23T08:46:32.286Z,63.61
2022-09-23T08:49:01.971Z,62.65
2022-09-23T08:51:36.656Z,62.18
2022-09-23T08:54:04.652Z,61.12
2022-09-23T08:56:35.389Z,61.60
2022-09-23T08:59:10.585Z,61.43
2022-09-23T09:01:44.033Z,61.33
2022-09-23T09:04:19.376Z,60.80
2022-09-23T09:06:54.337Z,59.28
2022-09-23T09:09:27.791Z,59.29
2022-09-23T09:12:04.000Z,59.54
2022-09-23T09:14:42.354Z,58.96
2022-09-23T09:17:21.105Z,59.58
2022-09-23T09:19:56.898Z,59.87
2022-09-23T09:22:42.436Z,58.93
2022-09-23T09:25:23.832Z,58.94
2022-09-23T09:27:52.966Z,57.97
2022-09-23T09:30:23.007Z,57.03
2022-09-23T09:32:58.704Z,56.99
2022-09-23T09:35:36.787Z,56.78
2022-09-23T09:38:05.679Z,56.96
2022-09-23T09:40:35.336Z,57.48
2022-09-23T09:43:04.572Z,57.09
2022-09-23T09:45:57.559Z,56.40
2022-09-23T09:48:33.095Z,56.74
2022-09-23T09:51:19.391Z,56.65
2022-09-23T09:53:47.073Z,56.50
2022-09-23T09:56:16.493Z,55.80
2022-09-23T09:58:49.396Z,55.17
2022-09-23T10:01:26.750Z,55.44
2022-09-23T10:03:59.184Z,56.37
2022-09-23T10:06:29.637Z,55.92
2022-09-23T10:09:10.717Z,56.29
2022-09-23T10:11:39.711Z,56.65
2022-09-23T10:14:13.360Z,56.31
2022-09-23T10:16:42.583Z,56.69
2022-09-23T10:19:23.292Z,56.89
2022-09-23T10:21:54.524Z,56.45
2022-09-23T10:24:25.852Z,56.07
2022-09-23T10:26:57.966Z,55.46
2022-09-23T10:29:30.497Z,56.25
2022-09-23T10:32:25.569Z,55.52
2022-09-23T10:34:56.924Z,56.60
2022-09-23T10:37:34.171Z,55.26
2022-09-23T10:40:30.249Z,55.95
2022-09-23T10:43:38.482Z,55.25
2022-09-23T10:46:27.291Z,52.96
2022-09-23T10:49:13.630Z,54.26
2022-09-23T10:51:49.216Z,53.48
2022-09-23T10:54:25.908Z,53.52
2022-09-23T10:57:00.902Z,53.47
2022-09-23T10:59:56.653Z,52.36
2022-09-23T11:02:45.837Z,51.13
2022-09-23T11:05:26.398Z,50.86
2022-09-23T11:08:05.914Z,50.32
2022-09-23T11:10:54.872Z,50.05
2022-09-23T11:13:44.955Z,50.08
2022-09-23T11:16:25.701Z,50.48
2022-09-23T11:19:16.066Z,49.41
2022-09-23T11:22:07.114Z,49.48
2022-09-23T11:24:58.209Z,49.20
2022-09-23T11:27:39.750Z,49.32
2022-09-23T11:30:13.457Z,50.23
2022-09-23T11:35:42.679Z,48.63
2022-09-23T11:38:21.259Z,46.82
2022-09-23T11:40:54.787Z,46.31
2022-09-23T11:43:25.140Z,46.85
2022-09-23T11:45:59.667Z,45.84
2022-09-23T11:48:35.098Z,45.82
2022-09-23T11:51:07.912Z,45.52
2022-09-23T11:53:46.484Z,45.16
2022-09-23T11:56:32.266Z,44.17
2022-09-23T11:59:11.431Z,44.74
2022-09-23T12:01:46.577Z,44.29
2022-09-23T12:04:24.425Z,43.90
2022-09-23T12:07:05.868Z,43.04
2022-09-23T12:09:57.666Z,44.02
2022-09-23T12:12:33.423Z,43.06
2022-09-23T12:15:08.047Z,42.48
2022-09-23T12:17:50.551Z,41.73
2022-09-23T12:20:37.040Z,42.55
2022-09-23T12:23:17.203Z,43.06
2022-09-23T12:25:51.092Z,43.22
2022-09-23T12:28:23.366Z,42.50
2022-09-23T12:30:53.524Z,43.59
2022-09-23T12:33:24.728Z,43.44
2022-09-23T12:35:54.740Z,43.20
2022-09-23T12:38:26.630Z,43.00
2022-09-23T12:40:57.530Z,42.27
2022-09-23T12:44:00.970Z,41.99
2022-09-23T12:46:29.562Z,41.96
2022-09-23T12:49:03.115Z,41.82
2022-09-23T12:51:31.794Z,42.38
2022-09-23T12:54:25.219Z,42.98
2022-09-23T12:57:13.432Z,42.60
2022-09-23T13:00:14.403Z,42.09
2022-09-23T13:02:44.378Z,42.04
2022-09-23T13:05:39.968Z,41.41
2022-09-23T13:08:13.268Z,42.10
2022-09-23T13:10:48.632Z,41.40
2022-09-23T13:13:25.781Z,42.25
2022-09-23T13:15:55.032Z,42.37
2022-09-23T13:18:59.818Z,42.75
2022-09-23T13:22:13.820Z,41.35
2022-09-23T13:24:53.328Z,41.63
2022-09-23T13:27:26.722Z,40.20
2022-09-23T13:30:04.272Z,41.43
2022-09-23T13:32:37.861Z,41.05
2022-09-23T13:35:17.927Z,41.84
2022-09-23T13:37:51.630Z,42.02
2022-09-23T13:40:24.583Z,41.17
2022-09-23T13:42:58.535Z,41.53
2022-09-23T13:45:34.007Z,43.11
2022-09-23T13:48:15.334Z,43.09
2022-09-23T13:50:49.040Z,42.25
2022-09-23T13:53:23.557Z,41.96
2022-09-23T13:56:02.381Z,42.36
2022-09-23T13:58:32.991Z,42.27
2022-09-23T14:01:02.436Z,41.60
2022-09-23T14:03:36.127Z,42.07
2022-09-23T14:06:08.531Z,41.27
2022-09-23T14:08:36.908Z,42.02
2022-09-23T14:11:06.268Z,42.46
2022-09-23T14:13:41.419Z,42.90
2022-09-23T14:16:14.785Z,42.85
2022-09-23T14:18:46.273Z,43.11
2022-09-23T14:21:33.796Z,43.79
2022-09-23T14:24:14.040Z,43.99
2022-09-23T14:26:43.817Z,43.42
2022-09-23T14:29:16.420Z,43.39
2022-09-23T14:31:56.784Z,43.18
2022-09-23T14:34:42.812Z,43.78
2022-09-23T14:37:50.745Z,43.76
2022-09-23T14:40:20.866Z,43.66
2022-09-23T14:42:52.460Z,42.62
2022-09-23T14:45:23.603Z,42.99
2022-09-23T14:47:57.978Z,44.42
2022-09-23T14:50:40.748Z,43.88
2022-09-23T14:53:33.993Z,43.56
2022-09-23T14:56:26.000Z,43.67
2022-09-23T14:58:55.383Z,43.44
2022-09-23T15:01:39.625Z,44.21
2022-09-23T15:04:15.843Z,43.88
2022-09-23T15:06:49.153Z,44.40
2022-09-23T15:09:23.587Z,43.86
2022-09-23T15:11:58.435Z,44.56
2022-09-23T15:14:39.074Z,44.21
2022-09-23T15:17:23.725Z,44.63
2022-09-23T15:19:56.802Z,44.20
2022-09-23T15:22:25.302Z,45.10
2022-09-23T15:24:54.235Z,44.09
2022-09-23T15:27:33.298Z,44.89
2022-09-23T15:30:16.071Z,45.09
2022-09-23T15:32:44.573Z,45.33
2022-09-23T15:35:18.844Z,46.12
2022-09-23T15:37:49.003Z,46.39
2022-09-23T15:40:21.191Z,45.78
2022-09-23T15:42:51.478Z,47.06
2022-09-23T15:45:21.931Z,46.49
2022-09-23T15:47:52.146Z,46.60
2022-09-23T15:50:21.403Z,45.85
2022-09-23T15:52:49.156Z,46.89
2022-09-23T15:55:19.483Z,46.60
2022-09-23T15:57:48.078Z,47.70
2022-09-23T16:00:16.826Z,48.22
2022-09-23T16:02:48.016Z,47.89
2022-09-23T16:05:24.140Z,47.70
2022-09-23T16:07:53.306Z,47.87
2022-09-23T16:10:23.553Z,48.50
2022-09-23T16:12:54.869Z,49.71
2022-09-23T16:15:24.476Z,50.99
2022-09-23T16:17:52.646Z,51.97
2022-09-23T16:20:22.223Z,51.59
2022-09-23T16:22:55.327Z,52.32
2022-09-23T16:25:28.218Z,52.37
2022-09-23T16:27:57.075Z,52.82
2022-09-23T16:30:25.201Z,52.95
2022-09-23T16:32:53.089Z,53.65
2022-09-23T16:35:23.210Z,53.69
2022-09-23T16:37:52.826Z,53.81
2022-09-23T16:40:22.302Z,54.22
2022-09-23T16:42:52.056Z,55.17
2022-09-23T16:45:23.091Z,55.50
2022-09-23T16:47:52.331Z,55.69
2022-09-23T16:50:23.768Z,55.13
2022-09-23T16:52:54.723Z,55.65
2022-09-23T16:55:24.665Z,56.07
2022-09-23T16:57:53.931Z,56.17
2022-09-23T17:00:40.124Z,56.91
2022-09-23T17:03:25.394Z,57.07
2022-09-23T17:05:55.451Z,57.95
2022-09-23T17:08:23.386Z,58.23
2022-09-23T17:10:58.563Z,58.60
2022-09-23T17:13:27.007Z,58.10
2022-09-23T17:15:55.594Z,58.53
2022-09-23T17:18:23.780Z,58.53
2022-09-23T17:21:01.157Z,59.08
2022-09-23T17:23:31.322Z,59.25
2022-09-23T17:26:00.133Z,59.61
2022-09-23T17:28:28.307Z,59.54
2022-09-23T17:31:00.338Z,60.45
2022-09-23T17:33:30.371Z,60.32
2022-09-23T17:36:00.345Z,60.53
2022-09-23T17:38:29.407Z,60.35
2022-09-23T17:41:01.222Z,60.37
2022-09-23T17:43:31.423Z,60.91
2022-09-23T17:46:05.138Z,61.07
2022-09-23T17:48:35.598Z,61.59
2022-09-23T17:51:06.972Z,61.86
2022-09-23T17:53:36.942Z,61.99
2022-09-23T17:56:07.180Z,62.90
2022-09-23T17:58:36.874Z,62.84
2022-09-23T18:01:05.725Z,63.27
2022-09-23T18:03:33.632Z,63.70
2022-09-23T18:06:12.161Z,63.70
2022-09-23T18:08:40.837Z,64.34
2022-09-23T18:11:16.178Z,64.28
2022-09-23T18:13:49.653Z,64.52
2022-09-23T18:16:18.618Z,64.47
2022-09-23T18:18:51.497Z,64.94
2022-09-23T18:21:21.070Z,64.71
2022-09-23T18:23:49.665Z,64.53
2022-09-23T18:26:19.095Z,65.11
2022-09-23T18:28:47.962Z,65.25
2022-09-23T18:31:16.599Z,65.62
2022-09-23T18:33:44.382Z,66.04
2022-09-23T18:36:12.228Z,66.31
2022-09-23T18:38:41.352Z,66.55
2022-09-23T18:41:09.382Z,66.86
2022-09-23T18:43:41.537Z,67.72
2022-09-23T18:46:14.057Z,68.27
2022-09-23T18:49:00.037Z,68.47
2022-09-23T18:51:29.499Z,68.69
2022-09-23T18:54:00.706Z,69.47
2022-09-23T18:56:33.580Z,69.99
2022-09-23T18:59:02.275Z,70.42
2022-09-23T19:01:30.388Z,70.53
2022-09-23T19:03:59.782Z,70.31
2022-09-23T19:06:27.556Z,71.16
2022-09-23T19:08:56.092Z,71.72
2022-09-23T19:11:25.513Z,71.57
2022-09-23T19:13:55.215Z,71.35
2022-09-23T19:16:24.239Z,71.24
2022-09-23T19:18:52.690Z,71.50
2022-09-23T19:21:22.522Z,72.00
2022-09-23T19:23:53.137Z,72.18
2022-09-23T19:26:22.798Z,72.71
2022-09-23T19:28:54.124Z,72.89
2022-09-23T19:31:25.035Z,72.81
2022-09-23T19:33:57.025Z,72.53
2022-09-23T19:36:32.485Z,73.11
2022-09-23T19:39:03.093Z,73.47
2022-09-23T19:41:33.350Z,73.80
2022-09-23T19:44:03.683Z,73.90
2022-09-23T19:46:32.462Z,74.06
2022-09-23T19:49:01.385Z,74.08
2022-09-23T19:51:29.818Z,74.38
2022-09-23T19:53:58.197Z,74.55
2022-09-23T19:56:26.306Z,75.11
2022-09-23T19:58:55.728Z,75.02
2022-09-23T20:01:26.224Z,75.26
2022-09-23T20:03:56.176Z,75.11
2022-09-23T20:06:24.496Z,75.52
2022-09-23T20:08:52.723Z,75.56
2022-09-23T20:11:28.105Z,75.67
2022-09-23T20:14:01.017Z,76.07
2022-09-23T20:16:33.052Z,76.03
2022-09-23T20:19:03.171Z,76.01
2022-09-23T20:21:31.300Z,76.30
2022-09-23T20:23:59.359Z,75.96
2022-09-23T20:26:44.938Z,75.21
2022-09-23T20:29:12.978Z,75.72
2022-09-23T20:31:42.201Z,75.62
2022-09-23T20:34:11.135Z,75.95
2022-09-23T20:36:41.622Z,76.26
2022-09-23T20:39:10.886Z,76.12
2022-09-23T20:41:39.848Z,76.33
2022-09-23T20:44:11.557Z,75.46
2022-09-23T20:46:42.868Z,76.02
2022-09-23T20:49:14.679Z,76.07
2022-09-23T20:51:42.905Z,76.14
2022-09-23T20:54:11.969Z,76.28
2022-09-23T20:56:39.743Z,75.45
2022-09-23T20:59:07.719Z,75.66
2022-09-23T21:01:36.908Z,75.35
2022-09-23T21:04:06.113Z,75.24
2022-09-23T21:06:36.886Z,75.49
2022-09-23T21:09:06.147Z,75.86
2022-09-23T21:11:34.237Z,75.72
2022-09-23T21:14:02.620Z,76.40
2022-09-23T21:16:31.027Z,76.13
2022-09-23T21:18:59.708Z,75.56
2022-09-23T21:21:27.826Z,76.12
2022-09-23T21:24:17.360Z,76.04
2022-09-23T21:26:47.832Z,75.39
2022-09-23T21:29:15.734Z,75.25
2022-09-23T21:31:43.495Z,75.60
2022-09-23T21:34:12.643Z,75.73
2022-09-23T21:36:44.020Z,75.40
2022-09-23T21:39:13.374Z,74.76
2022-09-23T21:41:41.204Z,75.30
2022-09-23T21:44:09.122Z,75.86
2022-09-23T21:46:38.037Z,75.68
2022-09-23T21:49:06.527Z,75.84
2022-09-23T21:51:40.682Z,75.64
2022-09-23T21:54:15.541Z,75.33
2022-09-23T21:56:44.669Z,75.65
2022-09-23T21:59:12.514Z,75.51
2022-09-23T22:01:43.690Z,75.88
2022-09-23T22:04:16.931Z,76.06
2022-09-23T22:06:45.797Z,75.83
2022-09-23T22:09:17.266Z,75.74
2022-09-23T22:12:02.797Z,75.59
2022-09-23T22:14:31.088Z,75.51
2022-09-23T22:17:01.514Z,75.10
2022-09-23T22:19:34.678Z,74.45
2022-09-23T22:22:03.356Z,74.78
2022-09-23T22:24:32.472Z,75.25
2022-09-23T22:27:03.217Z,75.25
2022-09-23T22:29:48.398Z,75.90
2022-09-23T22:32:41.650Z,76.35
2022-09-23T22:35:10.865Z,75.85
2022-09-23T22:37:39.069Z,76.07
2022-09-23T22:40:10.658Z,76.14
2022-09-23T22:42:39.367Z,76.18
2022-09-23T22:45:08.892Z,76.55
2022-09-23T22:47:37.725Z,76.90
2022-09-23T22:50:06.057Z,77.14
2022-09-23T22:52:34.954Z,76.53
2022-09-23T22:55:03.658Z,77.26
2022-09-23T22:57:33.020Z,77.30
2022-09-23T23:00:00.862Z,77.47
2022-09-23T23:02:28.643Z,77.74
2022-09-23T23:04:58.516Z,77.47
2022-09-23T23:07:26.384Z,77.92
2022-09-23T23:09:54.194Z,77.47
2022-09-23T23:12:22.370Z,77.64
2022-09-23T23:14:51.534Z,77.70
2022-09-23T23:17:19.468Z,77.74
2022-09-23T23:19:48.044Z,77.92
2022-09-23T23:22:15.814Z,77.93
2022-09-23T23:24:43.683Z,78.28
2022-09-23T23:27:11.490Z,77.61
2022-09-23T23:29:39.312Z,77.86
2022-09-23T23:32:09.792Z,77.80
2022-09-23T23:34:37.638Z,76.12
2022-09-23T23:37:05.397Z,74.69
2022-09-23T23:39:34.887Z,74.17
2022-09-23T23:42:04.097Z,74.08
2022-09-23T23:44:32.668Z,73.54
2022-09-23T23:47:00.533Z,73.15
2022-09-23T23:49:30.231Z,73.50
2022-09-23T23:51:58.080Z,73.14
2022-09-23T23:54:25.869Z,73.46
2022-09-23T23:56:53.845Z,72.98
2022-09-23T23:59:21.962Z,73.35
